createdAt,value
2018-09-20T00:02:08.189Z,21.00
2018-09-20T00:04:35.746Z,21.00
2018-09-20T00:07:03.332Z,21.10
2018-09-20T00:09:30.847Z,21.20
2018-09-20T00:11:58.392Z,21.10
2018-09-20T00:14:25.884Z,21.20
2018-09-20T00:16:53.305Z,21.20
2018-09-20T00:19:20.800Z,21.00
2018-09-20T00:21:48.322Z,21.10
2018-09-20T00:24:15.884Z,21.10
2018-09-20T00:26:43.313Z,20.90
2018-09-20T00:29:10.792Z,20.90
2018-09-20T00:31:38.225Z,20.80
2018-09-20T00:34:05.809Z,20.80
2018-09-20T00:36:33.240Z,21.20
2018-09-20T00:39:01.029Z,21.30
2018-09-20T00:41:28.525Z,21.20
2018-09-20T00:43:55.967Z,21.10
2018-09-20T00:46:24.354Z,21.00
2018-09-20T00:48:53.521Z,20.80
2018-09-20T00:51:21.074Z,20.80
2018-09-20T00:53:48.533Z,20.90
2018-09-20T00:56:16.025Z,20.90
2018-09-20T00:58:43.480Z,20.80
2018-09-20T01:01:10.922Z,20.70
2018-09-20T01:03:41.117Z,20.80
2018-09-20T01:06:08.619Z,20.70
2018-09-20T01:08:36.113Z,20.60
2018-09-20T01:11:03.658Z,20.50
2018-09-20T01:13:31.186Z,20.70
2018-09-20T01:15:58.718Z,20.50
2018-09-20T01:18:26.245Z,20.50
2018-09-20T01:20:53.689Z,20.40
2018-09-20T01:23:21.169Z,20.40
2018-09-20T01:25:48.660Z,20.50
2018-09-20T01:28:16.093Z,20.40
2018-09-20T01:30:43.533Z,20.40
2018-09-20T01:33:11.004Z,20.30
2018-09-20T01:35:38.475Z,20.40
2018-09-20T01:38:06.010Z,20.20
2018-09-20T01:40:33.489Z,20.10
2018-09-20T01:43:00.987Z,20.20
2018-09-20T01:45:28.417Z,20.10
2018-09-20T01:47:55.948Z,20.10
2018-09-20T01:50:23.364Z,20.00
2018-09-20T01:52:50.813Z,19.90
2018-09-20T01:55:24.011Z,19.90
2018-09-20T01:57:51.463Z,19.80
2018-09-20T02:00:21.220Z,19.80
2018-09-20T02:02:48.772Z,19.80
2018-09-20T02:05:16.196Z,19.80
2018-09-20T02:07:52.031Z,19.90
2018-09-20T02:10:19.556Z,19.80
2018-09-20T02:12:47.741Z,19.70
2018-09-20T02:15:15.229Z,19.50
2018-09-20T02:17:42.748Z,19.80
2018-09-20T02:20:10.208Z,19.70
2018-09-20T02:22:37.685Z,19.80
2018-09-20T02:25:05.557Z,19.70
2018-09-20T02:27:33.084Z,19.70
2018-09-20T02:30:00.507Z,19.60
2018-09-20T02:32:28.017Z,19.70
2018-09-20T02:34:55.561Z,19.60
2018-09-20T02:37:23.114Z,19.70
2018-09-20T02:39:50.674Z,19.50
2018-09-20T02:42:18.232Z,19.60
2018-09-20T02:44:45.701Z,19.60
2018-09-20T02:47:15.910Z,19.40
2018-09-20T02:49:43.507Z,19.50
2018-09-20T02:52:10.963Z,19.50
2018-09-20T02:54:39.026Z,19.50
2018-09-20T02:57:06.556Z,19.50
2018-09-20T02:59:34.117Z,19.50
2018-09-20T03:02:01.676Z,19.50
2018-09-20T03:04:29.594Z,19.50
2018-09-20T03:06:57.102Z,19.50
2018-09-20T03:09:24.577Z,19.30
2018-09-20T03:11:52.020Z,19.20
2018-09-20T03:14:19.506Z,19.10
2018-09-20T03:16:47.029Z,19.10
2018-09-20T03:19:14.586Z,19.10
2018-09-20T03:21:42.020Z,19.30
2018-09-20T03:24:09.603Z,19.10
2018-09-20T03:26:37.114Z,19.00
2018-09-20T03:29:04.823Z,19.00
2018-09-20T03:31:32.254Z,19.00
2018-09-20T03:33:59.744Z,19.10
2018-09-20T03:36:27.183Z,19.10
2018-09-20T03:38:54.671Z,19.00
2018-09-20T03:41:22.161Z,19.00
2018-09-20T03:43:49.611Z,18.90
2018-09-20T03:46:17.100Z,18.90
2018-09-20T03:48:44.580Z,19.00
2018-09-20T03:51:12.058Z,19.00
2018-09-20T03:53:39.593Z,18.90
2018-09-20T03:56:07.084Z,18.90
2018-09-20T03:58:34.529Z,18.80
2018-09-20T04:01:02.070Z,18.80
2018-09-20T04:03:29.625Z,18.80
2018-09-20T04:05:57.074Z,18.80
2018-09-20T04:08:24.551Z,18.70
2018-09-20T04:10:51.992Z,18.70
2018-09-20T04:13:19.446Z,18.60
2018-09-20T04:15:50.700Z,18.60
2018-09-20T04:18:18.169Z,18.50
2018-09-20T04:20:45.604Z,18.50
2018-09-20T04:23:13.169Z,18.60
2018-09-20T04:25:46.871Z,18.60
2018-09-20T04:28:14.777Z,18.70
2018-09-20T04:30:42.205Z,18.50
2018-09-20T04:33:09.656Z,18.70
2018-09-20T04:35:37.115Z,18.70
2018-09-20T04:38:04.630Z,18.80
2018-09-20T04:40:32.115Z,18.80
2018-09-20T04:42:59.556Z,18.70
2018-09-20T04:45:26.990Z,18.70
2018-09-20T04:47:54.494Z,18.70
2018-09-20T04:50:21.929Z,18.70
2018-09-20T04:52:49.510Z,18.70
2018-09-20T04:55:16.947Z,18.80
2018-09-20T04:57:44.426Z,18.70
2018-09-20T05:00:11.876Z,18.70
2018-09-20T05:02:39.331Z,18.60
2018-09-20T05:05:06.801Z,18.50
2018-09-20T05:07:34.248Z,18.50
2018-09-20T05:10:01.685Z,18.70
2018-09-20T05:12:29.141Z,18.70
2018-09-20T05:14:56.583Z,18.60
2018-09-20T05:17:24.048Z,18.50
2018-09-20T05:19:51.484Z,18.60
2018-09-20T05:22:18.962Z,18.50
2018-09-20T05:24:46.410Z,18.70
2018-09-20T05:27:13.874Z,18.70
2018-09-20T05:29:41.314Z,18.60
2018-09-20T05:32:08.795Z,18.70
2018-09-20T05:34:36.229Z,18.70
2018-09-20T05:37:03.693Z,18.70
2018-09-20T05:39:31.244Z,18.70
2018-09-20T05:41:58.668Z,18.70
2018-09-20T05:44:26.166Z,18.70
2018-09-20T05:46:53.665Z,18.70
2018-09-20T05:49:21.177Z,18.80
2018-09-20T05:51:48.674Z,18.80
2018-09-20T05:54:16.137Z,18.90
2018-09-20T05:56:43.573Z,19.00
2018-09-20T05:59:11.040Z,18.90
2018-09-20T06:01:38.496Z,19.00
2018-09-20T06:04:06.017Z,19.00
2018-09-20T06:06:33.450Z,18.90
2018-09-20T06:09:01.190Z,19.00
2018-09-20T06:11:28.633Z,19.20
2018-09-20T06:13:56.096Z,19.10
2018-09-20T06:16:23.522Z,19.30
2018-09-20T06:18:51.011Z,19.20
2018-09-20T06:21:18.440Z,19.10
2018-09-20T06:23:45.902Z,19.10
2018-09-20T06:26:13.315Z,19.20
2018-09-20T06:28:40.769Z,19.20
2018-09-20T06:31:08.200Z,19.30
2018-09-20T06:33:35.659Z,19.40
2018-09-20T06:36:03.202Z,19.20
2018-09-20T06:38:30.648Z,19.30
2018-09-20T06:40:58.084Z,19.30
2018-09-20T06:43:25.541Z,19.40
2018-09-20T06:45:53.020Z,19.40
2018-09-20T06:48:20.478Z,19.50
2018-09-20T06:50:47.917Z,19.30
2018-09-20T06:53:15.373Z,19.40
2018-09-20T06:55:42.823Z,19.20
2018-09-20T06:58:10.285Z,19.30
2018-09-20T07:00:37.791Z,19.40
2018-09-20T07:03:05.420Z,19.40
2018-09-20T07:08:06.766Z,19.50
2018-09-20T07:10:34.351Z,19.70
2018-09-20T07:13:01.819Z,19.70
2018-09-20T07:15:29.312Z,19.80
2018-09-20T07:17:56.776Z,19.90
2018-09-20T07:20:24.276Z,19.90
2018-09-20T07:22:51.805Z,20.00
2018-09-20T07:25:19.263Z,20.00
2018-09-20T07:27:46.716Z,20.00
2018-09-20T07:30:14.171Z,20.00
2018-09-20T07:32:41.631Z,20.00
2018-09-20T07:35:09.088Z,20.00
2018-09-20T07:37:36.579Z,20.10
2018-09-20T07:40:04.173Z,20.20
2018-09-20T07:42:31.624Z,20.10
2018-09-20T07:44:59.077Z,20.10
2018-09-20T07:47:26.517Z,20.30
2018-09-20T07:49:53.975Z,20.30
2018-09-20T07:52:21.405Z,20.30
2018-09-20T07:54:48.859Z,20.30
2018-09-20T07:57:16.308Z,20.30
2018-09-20T07:59:43.776Z,20.40
2018-09-20T08:02:11.248Z,20.50
2018-09-20T08:04:38.702Z,20.40
2018-09-20T08:07:06.299Z,20.40
2018-09-20T08:09:33.748Z,20.40
2018-09-20T08:12:01.386Z,20.40
2018-09-20T08:14:28.871Z,20.70
2018-09-20T08:16:56.312Z,20.70
2018-09-20T08:19:23.821Z,20.90
2018-09-20T08:21:51.261Z,21.00
2018-09-20T08:24:18.756Z,21.00
2018-09-20T08:26:46.201Z,21.10
2018-09-20T08:29:13.669Z,21.10
2018-09-20T08:31:41.117Z,20.90
2018-09-20T08:34:08.694Z,21.10
2018-09-20T08:36:36.150Z,21.30
2018-09-20T08:39:07.110Z,21.40
2018-09-20T08:41:34.890Z,21.40
2018-09-20T08:44:02.519Z,21.40
2018-09-20T08:46:30.022Z,21.50
2018-09-20T08:48:57.530Z,21.40
2018-09-20T08:51:24.989Z,21.70
2018-09-20T08:53:52.446Z,21.90
2018-09-20T08:56:19.916Z,21.80
2018-09-20T08:58:47.347Z,21.80
2018-09-20T09:01:14.820Z,21.80
2018-09-20T09:03:42.253Z,22.00
2018-09-20T09:06:09.708Z,22.10
2018-09-20T09:08:37.165Z,22.00
2018-09-20T09:11:04.651Z,22.00
2018-09-20T09:13:32.073Z,22.00
2018-09-20T09:15:59.552Z,22.00
2018-09-20T09:18:26.981Z,22.20
2018-09-20T09:20:54.441Z,22.20
2018-09-20T09:23:21.865Z,22.30
2018-09-20T09:25:49.316Z,22.40
2018-09-20T09:28:16.745Z,22.50
2018-09-20T09:30:44.210Z,22.50
2018-09-20T09:33:11.661Z,22.40
2018-09-20T09:35:39.136Z,22.40
2018-09-20T09:38:06.568Z,22.20
2018-09-20T09:40:34.119Z,22.40
2018-09-20T09:43:01.556Z,22.50
2018-09-20T09:45:29.016Z,22.50
2018-09-20T09:47:56.465Z,22.50
2018-09-20T09:50:23.941Z,22.50
2018-09-20T09:52:51.592Z,22.60
2018-09-20T09:55:19.038Z,22.60
2018-09-20T09:57:54.336Z,22.40
2018-09-20T10:00:29.065Z,22.50
2018-09-20T10:02:57.608Z,22.60
2018-09-20T10:05:25.083Z,22.70
2018-09-20T10:07:52.625Z,22.80
2018-09-20T10:10:20.113Z,23.10
2018-09-20T10:12:47.577Z,23.30
2018-09-20T10:15:32.204Z,23.40
2018-09-20T10:17:59.633Z,23.20
2018-09-20T10:20:27.109Z,23.10
2018-09-20T10:22:54.886Z,23.20
2018-09-20T10:25:22.349Z,23.70
2018-09-20T10:27:49.817Z,23.80
2018-09-20T10:30:17.253Z,23.80
2018-09-20T10:32:44.717Z,23.60
2018-09-20T10:35:12.178Z,23.40
2018-09-20T10:37:39.646Z,23.60
2018-09-20T10:40:07.113Z,23.60
2018-09-20T10:42:34.634Z,23.70
2018-09-20T10:45:02.073Z,23.40
2018-09-20T10:47:29.648Z,23.20
2018-09-20T10:49:57.141Z,22.90
2018-09-20T10:52:24.788Z,23.10
2018-09-20T10:54:52.212Z,23.20
2018-09-20T10:57:19.685Z,23.30
2018-09-20T10:59:47.134Z,23.40
2018-09-20T11:02:14.902Z,23.70
2018-09-20T11:04:42.331Z,23.70
2018-09-20T11:07:09.796Z,23.80
2018-09-20T11:09:37.224Z,23.80
2018-09-20T11:12:05.341Z,23.90
2018-09-20T11:14:32.773Z,24.00
2018-09-20T11:17:00.222Z,23.80
2018-09-20T11:19:27.658Z,23.90
2018-09-20T11:21:55.133Z,23.90
2018-09-20T11:24:22.624Z,24.00
2018-09-20T11:26:50.798Z,24.20
2018-09-20T11:29:18.235Z,24.10
2018-09-20T11:31:45.706Z,24.40
2018-09-20T11:34:13.141Z,24.30
2018-09-20T11:36:41.260Z,24.60
2018-09-20T11:39:10.838Z,24.80
2018-09-20T11:41:38.436Z,24.80
2018-09-20T11:44:05.924Z,25.00
2018-09-20T11:46:33.620Z,25.00
2018-09-20T11:49:01.601Z,25.30
2018-09-20T11:51:29.128Z,25.30
2018-09-20T11:53:56.557Z,24.80
2018-09-20T11:56:24.031Z,24.80
2018-09-20T11:58:51.502Z,24.80
2018-09-20T12:01:19.006Z,25.00
2018-09-20T12:03:46.427Z,25.50
2018-09-20T12:06:13.892Z,25.60
2018-09-20T12:08:41.589Z,25.60
2018-09-20T12:11:09.107Z,25.20
2018-09-20T12:13:37.009Z,24.90
2018-09-20T12:16:04.555Z,24.70
2018-09-20T12:18:32.029Z,24.80
2018-09-20T12:20:59.497Z,25.20
2018-09-20T12:23:26.956Z,25.40
2018-09-20T12:25:54.408Z,25.00
2018-09-20T12:28:21.914Z,25.00
2018-09-20T12:30:49.579Z,24.80
2018-09-20T12:33:17.050Z,25.10
2018-09-20T12:35:44.682Z,24.90
2018-09-20T12:38:12.130Z,24.90
2018-09-20T12:40:39.613Z,25.00
2018-09-20T12:43:07.121Z,25.20
2018-09-20T12:45:34.630Z,25.20
2018-09-20T12:48:02.088Z,25.40
2018-09-20T12:50:29.645Z,25.50
2018-09-20T12:52:57.106Z,25.60
2018-09-20T12:55:30.084Z,25.60
2018-09-20T12:57:57.552Z,25.60
2018-09-20T13:00:26.991Z,25.40
2018-09-20T13:02:54.508Z,25.70
2018-09-20T13:05:22.016Z,25.90
2018-09-20T13:07:49.509Z,26.00
2018-09-20T13:10:16.933Z,25.90
2018-09-20T13:12:44.420Z,26.30
2018-09-20T13:15:11.858Z,26.20
2018-09-20T13:17:39.450Z,26.20
2018-09-20T13:20:07.048Z,26.50
2018-09-20T13:22:34.468Z,26.30
2018-09-20T13:25:01.908Z,26.50
2018-09-20T13:27:29.380Z,26.70
2018-09-20T13:29:56.952Z,27.00
2018-09-20T13:32:24.416Z,27.10
2018-09-20T13:34:52.131Z,27.00
2018-09-20T13:37:19.854Z,27.00
2018-09-20T13:39:47.248Z,26.60
2018-09-20T13:42:14.892Z,26.70
2018-09-20T13:44:42.412Z,26.90
2018-09-20T13:47:09.919Z,27.10
2018-09-20T13:49:37.514Z,26.70
2018-09-20T13:52:05.746Z,27.00
2018-09-20T13:54:33.218Z,27.50
2018-09-20T13:57:00.677Z,27.40
2018-09-20T13:59:28.263Z,26.80
2018-09-20T14:01:55.720Z,27.20
2018-09-20T14:04:23.196Z,27.40
2018-09-20T14:06:50.735Z,27.50
2018-09-20T14:09:18.201Z,27.10
2018-09-20T14:11:45.666Z,27.00
2018-09-20T14:14:13.173Z,26.60
2018-09-20T14:16:40.640Z,26.30
2018-09-20T14:19:08.225Z,26.20
2018-09-20T14:21:35.991Z,25.90
2018-09-20T14:24:03.511Z,26.00
2018-09-20T14:26:31.004Z,26.10
2018-09-20T14:28:58.528Z,26.00
2018-09-20T14:31:26.021Z,26.40
2018-09-20T14:33:53.492Z,26.70
2018-09-20T14:36:20.948Z,27.30
2018-09-20T14:38:48.592Z,27.80
2018-09-20T14:41:16.068Z,27.70
2018-09-20T14:43:43.548Z,28.50
2018-09-20T14:46:11.039Z,28.40
2018-09-20T14:48:38.527Z,28.40
2018-09-20T14:51:06.517Z,28.80
2018-09-20T14:53:34.021Z,28.60
2018-09-20T14:56:01.492Z,28.40
2018-09-20T14:58:33.220Z,28.30
2018-09-20T15:01:01.342Z,29.00
2018-09-20T15:03:28.801Z,28.80
2018-09-20T15:05:56.345Z,29.30
2018-09-20T15:08:23.844Z,29.90
2018-09-20T15:10:51.376Z,30.40
2018-09-20T15:13:18.808Z,29.60
2018-09-20T15:15:46.267Z,28.70
2018-09-20T15:18:13.718Z,29.30
2018-09-20T15:20:41.204Z,28.60
2018-09-20T15:23:08.660Z,29.20
2018-09-20T15:25:36.344Z,29.80
2018-09-20T15:28:03.881Z,30.00
2018-09-20T15:30:31.365Z,30.60
2018-09-20T15:32:58.823Z,30.70
2018-09-20T15:35:26.439Z,30.70
2018-09-20T15:37:53.891Z,30.80
2018-09-20T15:40:21.372Z,31.20
2018-09-20T15:42:48.843Z,31.80
2018-09-20T15:45:16.330Z,31.80
2018-09-20T15:47:43.827Z,31.40
2018-09-20T15:50:11.375Z,31.20
2018-09-20T15:52:39.574Z,31.30
2018-09-20T15:55:07.053Z,31.60
2018-09-20T15:57:34.529Z,31.40
2018-09-20T16:00:01.998Z,31.10
2018-09-20T16:02:29.586Z,29.80
2018-09-20T16:04:57.041Z,29.30
2018-09-20T16:07:24.603Z,28.90
2018-09-20T16:09:52.085Z,29.20
2018-09-20T16:12:19.577Z,28.90
2018-09-20T16:14:47.068Z,29.30
2018-09-20T16:17:14.510Z,29.60
2018-09-20T16:19:42.015Z,30.10
2018-09-20T16:22:09.547Z,29.90
2018-09-20T16:24:37.050Z,29.60
2018-09-20T16:27:04.504Z,29.60
2018-09-20T16:29:39.593Z,29.60
2018-09-20T16:34:31.339Z,29.20
2018-09-20T16:37:05.829Z,29.10
2018-09-20T16:39:35.634Z,28.70
2018-09-20T16:42:04.080Z,28.20
2018-09-20T16:44:31.561Z,28.20
2018-09-20T16:46:59.054Z,28.30
2018-09-20T16:49:26.621Z,28.40
2018-09-20T16:51:54.077Z,28.10
2018-09-20T16:54:21.571Z,27.80
2018-09-20T16:56:49.028Z,27.20
2018-09-20T16:59:16.527Z,26.80
2018-09-20T17:01:43.969Z,26.50
2018-09-20T17:04:11.465Z,26.50
2018-09-20T17:06:39.093Z,26.30
2018-09-20T17:09:07.765Z,25.90
2018-09-20T17:11:35.268Z,25.80
2018-09-20T17:14:02.765Z,25.60
2018-09-20T17:16:30.298Z,25.40
2018-09-20T17:18:57.759Z,25.30
2018-09-20T17:21:25.241Z,25.00
2018-09-20T17:23:52.699Z,24.90
2018-09-20T17:26:20.212Z,24.70
2018-09-20T17:28:47.707Z,24.60
2018-09-20T17:31:15.180Z,24.40
2018-09-20T17:33:42.683Z,24.20
2018-09-20T17:36:10.337Z,24.10
2018-09-20T17:38:38.457Z,24.10
2018-09-20T17:41:09.129Z,24.00
2018-09-20T17:43:41.844Z,23.70
2018-09-20T17:46:09.410Z,23.60
2018-09-20T17:48:37.082Z,23.50
2018-09-20T17:51:05.123Z,23.40
2018-09-20T17:53:33.108Z,23.40
2018-09-20T17:56:01.612Z,23.30
2018-09-20T17:58:29.641Z,23.10
2018-09-20T18:00:57.173Z,23.20
2018-09-20T18:03:24.623Z,23.10
2018-09-20T18:05:52.126Z,22.90
2018-09-20T18:08:19.610Z,22.90
2018-09-20T18:10:47.072Z,22.90
2018-09-20T18:13:14.538Z,22.90
2018-09-20T18:15:42.012Z,22.90
2018-09-20T18:18:09.618Z,22.70
2018-09-20T18:20:37.057Z,22.70
2018-09-20T18:23:04.615Z,22.80
2018-09-20T18:25:32.090Z,22.60
2018-09-20T18:27:59.885Z,22.60
2018-09-20T18:30:27.378Z,22.50
2018-09-20T18:32:54.845Z,22.40
2018-09-20T18:35:22.364Z,22.50
2018-09-20T18:37:49.886Z,22.40
2018-09-20T18:40:17.361Z,22.30
2018-09-20T18:43:20.073Z,22.30
2018-09-20T18:45:47.816Z,22.40
2018-09-20T18:48:15.545Z,22.30
2018-09-20T18:50:43.044Z,22.20
2018-09-20T18:53:10.577Z,22.10
2018-09-20T18:55:38.068Z,22.00
2018-09-20T18:58:05.538Z,22.00
2018-09-20T19:00:34.021Z,22.00
2018-09-20T19:03:01.484Z,22.00
2018-09-20T19:05:28.990Z,22.00
2018-09-20T19:07:56.426Z,22.00
2018-09-20T19:10:23.906Z,21.90
2018-09-20T19:12:51.433Z,21.70
2018-09-20T19:15:18.990Z,21.60
2018-09-20T19:17:46.458Z,21.60
2018-09-20T19:20:13.932Z,21.60
2018-09-20T19:22:41.401Z,21.70
2018-09-20T19:25:08.918Z,21.70
2018-09-20T19:27:36.454Z,21.70
2018-09-20T19:30:03.906Z,21.60
2018-09-20T19:32:31.385Z,21.50
2018-09-20T19:34:58.828Z,21.40
2018-09-20T19:37:26.742Z,21.40
2018-09-20T19:39:54.385Z,21.40
2018-09-20T19:42:22.814Z,21.40
2018-09-20T19:44:50.317Z,21.30
2018-09-20T19:47:17.852Z,21.10
2018-09-20T19:49:45.430Z,20.80
2018-09-20T19:52:13.055Z,20.80
2018-09-20T19:54:40.657Z,20.80
2018-09-20T19:57:08.102Z,20.90
2018-09-20T19:59:35.574Z,20.90
2018-09-20T20:02:03.113Z,20.90
2018-09-20T20:04:30.609Z,21.00
2018-09-20T20:06:58.114Z,21.00
2018-09-20T20:09:25.700Z,21.00
2018-09-20T20:11:53.223Z,20.80
2018-09-20T20:14:20.729Z,20.80
2018-09-20T20:16:48.270Z,20.80
2018-09-20T20:19:15.830Z,20.80
2018-09-20T20:21:43.316Z,20.90
2018-09-20T20:24:10.764Z,20.80
2018-09-20T20:26:38.246Z,20.70
2018-09-20T20:29:05.750Z,20.80
2018-09-20T20:31:33.262Z,20.70
2018-09-20T20:34:00.710Z,20.70
2018-09-20T20:36:28.172Z,20.60
2018-09-20T20:38:56.009Z,20.80
2018-09-20T20:41:23.553Z,20.80
2018-09-20T20:43:51.213Z,20.70
2018-09-20T20:46:18.738Z,20.70
2018-09-20T20:48:46.553Z,20.70
2018-09-20T20:51:14.494Z,20.70
2018-09-20T20:53:41.966Z,20.70
2018-09-20T20:56:09.464Z,20.70
2018-09-20T20:58:37.051Z,20.70
2018-09-20T21:01:04.531Z,20.70
2018-09-20T21:03:32.000Z,20.70
2018-09-20T21:05:59.449Z,20.70
2018-09-20T21:08:26.909Z,20.60
2018-09-20T21:10:54.370Z,20.60
2018-09-20T21:13:21.864Z,20.70
2018-09-20T21:15:49.321Z,20.50
2018-09-20T21:18:16.818Z,20.60
2018-09-20T21:20:44.295Z,20.70
2018-09-20T21:23:11.828Z,20.60
2018-09-20T21:25:39.262Z,20.60
2018-09-20T21:28:06.969Z,20.60
2018-09-20T21:30:34.415Z,20.50
2018-09-20T21:33:01.890Z,20.60
2018-09-20T21:35:29.366Z,20.60
2018-09-20T21:37:56.840Z,20.60
2018-09-20T21:40:24.333Z,20.50
2018-09-20T21:42:51.818Z,20.60
2018-09-20T21:45:19.276Z,20.70
2018-09-20T21:47:46.781Z,20.50
2018-09-20T21:50:14.303Z,20.60
2018-09-20T21:52:41.793Z,20.70
2018-09-20T21:55:09.298Z,20.60
2018-09-20T21:57:36.776Z,20.60
2018-09-20T22:00:06.467Z,20.50
2018-09-20T22:02:39.675Z,20.60
2018-09-20T22:05:07.174Z,20.50
2018-09-20T22:07:34.658Z,20.60
2018-09-20T22:10:02.094Z,20.60
2018-09-20T22:12:29.569Z,20.60
2018-09-20T22:14:57.041Z,20.50
2018-09-20T22:17:24.705Z,20.50
2018-09-20T22:19:52.188Z,20.40
2018-09-20T22:22:19.641Z,20.40
2018-09-20T22:24:47.125Z,20.30
2018-09-20T22:27:14.562Z,20.20
2018-09-20T22:29:42.080Z,20.20
2018-09-20T22:32:09.533Z,20.20
2018-09-20T22:34:36.989Z,20.30
2018-09-20T22:37:04.528Z,20.30
2018-09-20T22:39:32.171Z,20.40
2018-09-20T22:41:59.633Z,20.30
2018-09-20T22:44:27.120Z,20.30
2018-09-20T22:46:54.545Z,20.40
2018-09-20T22:49:22.053Z,20.30
2018-09-20T22:51:49.524Z,20.30
2018-09-20T22:54:17.028Z,20.20
2018-09-20T22:56:44.521Z,20.30
2018-09-20T22:59:11.990Z,20.20
2018-09-20T23:01:40.780Z,20.10
2018-09-20T23:04:08.294Z,20.20
2018-09-20T23:06:35.748Z,20.10
2018-09-20T23:09:04.846Z,20.00
2018-09-20T23:11:32.337Z,20.00
2018-09-20T23:13:59.857Z,19.90
2018-09-20T23:16:27.350Z,20.00
2018-09-20T23:18:54.905Z,19.90
2018-09-20T23:21:22.401Z,20.00
2018-09-20T23:23:49.855Z,19.90
2018-09-20T23:26:17.316Z,19.80
2018-09-20T23:28:44.798Z,19.80
2018-09-20T23:31:12.246Z,19.70
2018-09-20T23:33:39.720Z,19.70
2018-09-20T23:36:07.173Z,19.70
2018-09-20T23:38:34.665Z,19.70
2018-09-20T23:41:02.160Z,19.60
2018-09-20T23:43:29.680Z,19.60
2018-09-20T23:45:57.157Z,19.70
2018-09-20T23:48:24.614Z,19.60
2018-09-20T23:50:52.092Z,19.50
2018-09-20T23:53:19.521Z,19.50
2018-09-20T23:55:47.003Z,19.50
2018-09-20T23:58:14.446Z,19.50
